sensor_id;sensor_type;location;lat;lon;timestamp;pressure;altitude;pressure_sealevel;temperature;humidity
67109;BME280;54027;50.786;7.058;2023-01-26T00:00:23;102102.09;;;0.11;90.53
67109;BME280;54027;50.786;7.058;2023-01-26T00:02:48;102098.81;;;0.13;90.55
67109;BME280;54027;50.786;7.058;2023-01-26T00:05:14;102098.66;;;0.10;90.86
67109;BME280;54027;50.786;7.058;2023-01-26T00:07:39;102095.94;;;0.07;91.08
67109;BME280;54027;50.786;7.058;2023-01-26T00:10:10;102097.50;;;0.05;90.47
67109;BME280;54027;50.786;7.058;2023-01-26T00:12:35;102091.41;;;0.02;90.92
67109;BME280;54027;50.786;7.058;2023-01-26T00:15:01;102091.56;;;0.05;90.91
67109;BME280;54027;50.786;7.058;2023-01-26T00:17:26;102082.97;;;0.03;91.45
67109;BME280;54027;50.786;7.058;2023-01-26T00:19:53;102078.59;;;0.00;90.69
67109;BME280;54027;50.786;7.058;2023-01-26T00:22:20;102081.13;;;0.00;90.70
67109;BME280;54027;50.786;7.058;2023-01-26T00:24:45;102072.47;;;-0.03;90.86
67109;BME280;54027;50.786;7.058;2023-01-26T00:27:11;102057.22;;;-0.03;91.05
67109;BME280;54027;50.786;7.058;2023-01-26T00:29:36;102066.78;;;0.01;91.08
67109;BME280;54027;50.786;7.058;2023-01-26T00:32:01;102070.81;;;-0.03;90.74
67109;BME280;54027;50.786;7.058;2023-01-26T00:34:27;102075.72;;;-0.06;90.68
67109;BME280;54027;50.786;7.058;2023-01-26T00:36:52;102066.72;;;-0.15;90.65
67109;BME280;54027;50.786;7.058;2023-01-26T00:39:17;102064.09;;;-0.17;90.76
67109;BME280;54027;50.786;7.058;2023-01-26T00:41:43;102056.47;;;-0.17;91.00
67109;BME280;54027;50.786;7.058;2023-01-26T00:44:27;102059.91;;;-0.16;91.35
67109;BME280;54027;50.786;7.058;2023-01-26T00:46:52;102052.09;;;-0.19;91.68
67109;BME280;54027;50.786;7.058;2023-01-26T00:49:17;102047.75;;;-0.22;91.22
67109;BME280;54027;50.786;7.058;2023-01-26T00:51:43;102047.03;;;-0.19;91.77
67109;BME280;54027;50.786;7.058;2023-01-26T00:54:08;102052.19;;;-0.18;91.74
67109;BME280;54027;50.786;7.058;2023-01-26T00:56:34;102055.06;;;-0.12;91.91
67109;BME280;54027;50.786;7.058;2023-01-26T00:58:59;102052.63;;;-0.10;91.57
67109;BME280;54027;50.786;7.058;2023-01-26T01:01:24;102048.25;;;-0.13;91.27
67109;BME280;54027;50.786;7.058;2023-01-26T01:03:50;102047.53;;;-0.10;91.02
67109;BME280;54027;50.786;7.058;2023-01-26T01:06:16;102048.25;;;-0.13;91.27
67109;BME280;54027;50.786;7.058;2023-01-26T01:08:42;102053.16;;;-0.16;90.68
67109;BME280;54027;50.786;7.058;2023-01-26T01:11:09;102041.84;;;-0.21;91.19
67109;BME280;54027;50.786;7.058;2023-01-26T01:13:35;102040.19;;;-0.20;91.24
67109;BME280;54027;50.786;7.058;2023-01-26T01:16:09;102048.75;;;-0.18;91.53
67109;BME280;54027;50.786;7.058;2023-01-26T01:18:36;102042.13;;;-0.16;91.02
67109;BME280;54027;50.786;7.058;2023-01-26T01:21:15;102042.28;;;-0.13;91.13
67109;BME280;54027;50.786;7.058;2023-01-26T01:23:42;102038.84;;;-0.14;90.77
67109;BME280;54027;50.786;7.058;2023-01-26T01:26:08;102033.94;;;-0.11;91.02
67109;BME280;54027;50.786;7.058;2023-01-26T01:28:35;102035.59;;;-0.11;90.68
67109;BME280;54027;50.786;7.058;2023-01-26T01:31:08;102035.88;;;-0.07;90.80
67109;BME280;54027;50.786;7.058;2023-01-26T01:33:34;102033.16;;;-0.10;90.58
67109;BME280;54027;50.786;7.058;2023-01-26T01:36:05;102032.03;;;-0.15;90.50
67109;BME280;54027;50.786;7.058;2023-01-26T01:38:31;102031.78;;;-0.19;90.41
67109;BME280;54027;50.786;7.058;2023-01-26T01:40:57;102029.84;;;-0.23;89.88
67109;BME280;54027;50.786;7.058;2023-01-26T01:43:23;102020.41;;;-0.26;89.93
67109;BME280;54027;50.786;7.058;2023-01-26T01:45:50;102018.63;;;-0.27;89.78
67109;BME280;54027;50.786;7.058;2023-01-26T01:48:30;102020.41;;;-0.26;89.97
67109;BME280;54027;50.786;7.058;2023-01-26T01:51:04;102021.28;;;-0.25;89.97
67109;BME280;54027;50.786;7.058;2023-01-26T01:53:33;102014.44;;;-0.26;89.91
67109;BME280;54027;50.786;7.058;2023-01-26T01:56:03;102013.50;;;-0.28;89.69
67109;BME280;54027;50.786;7.058;2023-01-26T01:58:32;102015.38;;;-0.24;89.87
67109;BME280;54027;50.786;7.058;2023-01-26T02:01:00;102011.91;;;-0.26;90.23
67109;BME280;54027;50.786;7.058;2023-01-26T02:03:27;102010.78;;;-0.31;89.60
67109;BME280;54027;50.786;7.058;2023-01-26T02:06:13;102009.91;;;-0.32;89.69
67109;BME280;54027;50.786;7.058;2023-01-26T02:08:44;102002.28;;;-0.32;89.73
67109;BME280;54027;50.786;7.058;2023-01-26T02:11:15;101991.34;;;-0.31;89.87
67109;BME280;54027;50.786;7.058;2023-01-26T02:13:42;101993.88;;;-0.31;89.50
67109;BME280;54027;50.786;7.058;2023-01-26T02:16:09;101985.38;;;-0.31;89.39
67109;BME280;54027;50.786;7.058;2023-01-26T02:18:34;101985.53;;;-0.28;89.35
67109;BME280;54027;50.786;7.058;2023-01-26T02:21:02;101975.63;;;-0.24;89.66
67109;BME280;54027;50.786;7.058;2023-01-26T02:26:31;101979.47;;;-0.16;89.51
67109;BME280;54027;50.786;7.058;2023-01-26T02:28:58;101979.38;;;-0.17;89.02
67109;BME280;54027;50.786;7.058;2023-01-26T02:31:24;101976.75;;;-0.19;89.08
67109;BME280;54027;50.786;7.058;2023-01-26T02:33:50;101973.06;;;-0.24;88.89
67109;BME280;54027;50.786;7.058;2023-01-26T02:36:22;101979.03;;;-0.23;88.81
67109;BME280;54027;50.786;7.058;2023-01-26T02:42:04;101966.09;;;-0.28;88.29
67109;BME280;54027;50.786;7.058;2023-01-26T02:44:49;101961.97;;;-0.26;88.86
67109;BME280;54027;50.786;7.058;2023-01-26T02:47:16;101964.44;;;-0.27;89.02
67109;BME280;54027;50.786;7.058;2023-01-26T02:49:42;101968.00;;;-0.24;89.09
67109;BME280;54027;50.786;7.058;2023-01-26T02:52:23;101958.47;;;-0.28;88.58
67109;BME280;54027;50.786;7.058;2023-01-26T02:54:50;101965.28;;;-0.27;88.24
67109;BME280;54027;50.786;7.058;2023-01-26T02:57:34;101961.09;;;-0.26;88.56
67109;BME280;54027;50.786;7.058;2023-01-26T03:00:00;101967.94;;;-0.25;88.55
67109;BME280;54027;50.786;7.058;2023-01-26T03:02:26;101961.97;;;-0.26;88.90
67109;BME280;54027;50.786;7.058;2023-01-26T03:04:51;101961.97;;;-0.26;88.25
67109;BME280;54027;50.786;7.058;2023-01-26T03:07:17;101959.38;;;-0.27;88.31
67109;BME280;54027;50.786;7.058;2023-01-26T03:09:42;101955.06;;;-0.28;88.30
67109;BME280;54027;50.786;7.058;2023-01-26T03:12:08;101948.22;;;-0.29;87.82
67109;BME280;54027;50.786;7.058;2023-01-26T03:14:33;101944.91;;;-0.28;88.14
67109;BME280;54027;50.786;7.058;2023-01-26T03:16:59;101947.50;;;-0.27;87.82
67109;BME280;54027;50.786;7.058;2023-01-26T03:19:24;101941.47;;;-0.29;87.74
67109;BME280;54027;50.786;7.058;2023-01-26T03:22:09;101943.16;;;-0.29;87.68
67109;BME280;54027;50.786;7.058;2023-01-26T03:24:53;101941.66;;;-0.26;87.30
67109;BME280;54027;50.786;7.058;2023-01-26T03:27:47;101935.06;;;-0.22;87.86
67109;BME280;54027;50.786;7.058;2023-01-26T03:30:16;101930.06;;;-0.21;88.04
67109;BME280;54027;50.786;7.058;2023-01-26T03:32:41;101923.16;;;-0.23;87.79
67109;BME280;54027;50.786;7.058;2023-01-26T03:35:08;101924.81;;;-0.24;87.98
67109;BME280;54027;50.786;7.058;2023-01-26T03:37:40;101927.44;;;-0.22;87.63
67109;BME280;54027;50.786;7.058;2023-01-26T03:40:08;101924.59;;;-0.28;87.52
67109;BME280;54027;50.786;7.058;2023-01-26T03:42:53;101917.84;;;-0.28;87.18
67109;BME280;54027;50.786;7.058;2023-01-26T03:45:37;101918.06;;;-0.23;87.68
67109;BME280;54027;50.786;7.058;2023-01-26T03:48:21;101914.66;;;-0.24;87.70
67109;BME280;54027;50.786;7.058;2023-01-26T03:51:05;101913.78;;;-0.24;86.78
67109;BME280;54027;50.786;7.058;2023-01-26T03:53:49;101909.50;;;-0.25;86.78
67109;BME280;54027;50.786;7.058;2023-01-26T03:56:33;101924.81;;;-0.24;86.60
67109;BME280;54027;50.786;7.058;2023-01-26T03:59:00;101918.78;;;-0.26;86.78
67109;BME280;54027;50.786;7.058;2023-01-26T04:01:37;101907.69;;;-0.28;86.29
67109;BME280;54027;50.786;7.058;2023-01-26T04:04:03;101912.81;;;-0.26;86.92
67109;BME280;54027;50.786;7.058;2023-01-26T04:06:48;101908.56;;;-0.27;86.62
67109;BME280;54027;50.786;7.058;2023-01-26T04:09:33;101911.16;;;-0.26;86.55
67109;BME280;54027;50.786;7.058;2023-01-26T04:12:01;101919.66;;;-0.25;87.20
67109;BME280;54027;50.786;7.058;2023-01-26T04:14:27;101920.44;;;-0.26;87.16
67109;BME280;54027;50.786;7.058;2023-01-26T04:17:11;101912.75;;;-0.28;87.25
67109;BME280;54027;50.786;7.058;2023-01-26T04:19:55;101906.88;;;-0.27;87.38
67109;BME280;54027;50.786;7.058;2023-01-26T04:22:40;101912.81;;;-0.26;87.45
67109;BME280;54027;50.786;7.058;2023-01-26T04:25:16;101914.41;;;-0.28;87.43
67109;BME280;54027;50.786;7.058;2023-01-26T04:27:41;101919.25;;;-0.33;87.51
67109;BME280;54027;50.786;7.058;2023-01-26T04:30:10;101923.47;;;-0.33;87.88
67109;BME280;54027;50.786;7.058;2023-01-26T04:32:35;101921.53;;;-0.38;87.78
67109;BME280;54027;50.786;7.058;2023-01-26T04:35:01;101912.09;;;-0.40;87.98
67109;BME280;54027;50.786;7.058;2023-01-26T04:37:27;101912.09;;;-0.40;88.58
67109;BME280;54027;50.786;7.058;2023-01-26T04:39:52;101917.97;;;-0.41;88.70
67109;BME280;54027;50.786;7.058;2023-01-26T04:42:18;101909.63;;;-0.39;89.00
67109;BME280;54027;50.786;7.058;2023-01-26T04:44:43;101905.44;;;-0.38;89.48
67109;BME280;54027;50.786;7.058;2023-01-26T04:47:09;101899.56;;;-0.37;89.79
67109;BME280;54027;50.786;7.058;2023-01-26T04:49:34;101904.56;;;-0.39;89.43
67109;BME280;54027;50.786;7.058;2023-01-26T04:51:59;101913.81;;;-0.39;89.76
67109;BME280;54027;50.786;7.058;2023-01-26T04:54:25;101911.22;;;-0.41;89.85
67109;BME280;54027;50.786;7.058;2023-01-26T04:56:50;101911.94;;;-0.43;89.70
67109;BME280;54027;50.786;7.058;2023-01-26T04:59:16;101904.31;;;-0.43;90.00
67109;BME280;54027;50.786;7.058;2023-01-26T05:01:42;101901.69;;;-0.45;90.76
67109;BME280;54027;50.786;7.058;2023-01-26T05:04:09;101900.13;;;-0.43;90.52
67109;BME280;54027;50.786;7.058;2023-01-26T05:06:35;101908.53;;;-0.44;90.62
67109;BME280;54027;50.786;7.058;2023-01-26T05:09:00;101912.72;;;-0.44;90.85
67109;BME280;54027;50.786;7.058;2023-01-26T05:11:26;101917.72;;;-0.46;91.10
67109;BME280;54027;50.786;7.058;2023-01-26T05:13:51;101911.59;;;-0.49;90.92
67109;BME280;54027;50.786;7.058;2023-01-26T05:16:17;101905.47;;;-0.53;91.24
67109;BME280;54027;50.786;7.058;2023-01-26T05:18:43;101905.41;;;-0.54;91.32
67109;BME280;54027;50.786;7.058;2023-01-26T05:21:09;101909.63;;;-0.55;91.39
67109;BME280;54027;50.786;7.058;2023-01-26T05:23:35;101906.25;;;-0.54;91.81
67109;BME280;54027;50.786;7.058;2023-01-26T05:26:01;101902.78;;;-0.56;91.61
67109;BME280;54027;50.786;7.058;2023-01-26T05:28:26;101903.50;;;-0.58;91.79
67109;BME280;54027;50.786;7.058;2023-01-26T05:30:52;101904.28;;;-0.59;91.89
67109;BME280;54027;50.786;7.058;2023-01-26T05:33:17;101916.19;;;-0.58;92.09
67109;BME280;54027;50.786;7.058;2023-01-26T05:35:52;101915.91;;;-0.63;91.60
67109;BME280;54027;50.786;7.058;2023-01-26T05:38:18;101918.38;;;-0.64;92.05
67109;BME280;54027;50.786;7.058;2023-01-26T05:40:44;101930.13;;;-0.66;92.28
67109;BME280;54027;50.786;7.058;2023-01-26T05:43:10;101926.78;;;-0.65;92.07
67109;BME280;54027;50.786;7.058;2023-01-26T05:45:37;101925.66;;;-0.70;92.17
67109;BME280;54027;50.786;7.058;2023-01-26T05:48:03;101930.91;;;-0.67;92.77
67109;BME280;54027;50.786;7.058;2023-01-26T05:50:29;101924.94;;;-0.68;92.79
67109;BME280;54027;50.786;7.058;2023-01-26T05:52:54;101938.00;;;-0.62;92.83
67109;BME280;54027;50.786;7.058;2023-01-26T05:55:20;101932.84;;;-0.63;92.90
67109;BME280;54027;50.786;7.058;2023-01-26T05:57:46;101938.09;;;-0.60;93.16
67109;BME280;54027;50.786;7.058;2023-01-26T06:00:12;101934.66;;;-0.61;93.48
67109;BME280;54027;50.786;7.058;2023-01-26T06:02:37;101934.56;;;-0.62;92.87
67109;BME280;54027;50.786;7.058;2023-01-26T06:05:03;101930.19;;;-0.65;92.69
67109;BME280;54027;50.786;7.058;2023-01-26T06:07:29;101924.41;;;-0.62;93.40
67109;BME280;54027;50.786;7.058;2023-01-26T06:09:55;101932.03;;;-0.62;93.22
67109;BME280;54027;50.786;7.058;2023-01-26T06:12:20;101926.78;;;-0.65;93.59
67109;BME280;54027;50.786;7.058;2023-01-26T06:14:46;101921.72;;;-0.65;93.17
67109;BME280;54027;50.786;7.058;2023-01-26T06:17:14;101935.44;;;-0.62;93.82
67109;BME280;54027;50.786;7.058;2023-01-26T06:19:40;101931.31;;;-0.60;93.98
67109;BME280;54027;50.786;7.058;2023-01-26T06:22:10;101937.28;;;-0.59;93.73
67109;BME280;54027;50.786;7.058;2023-01-26T06:24:36;101938.94;;;-0.60;93.52
67109;BME280;54027;50.786;7.058;2023-01-26T06:27:02;101934.56;;;-0.62;93.51
67109;BME280;54027;50.786;7.058;2023-01-26T06:29:28;101943.06;;;-0.62;94.00
67109;BME280;54027;50.786;7.058;2023-01-26T06:31:54;101939.91;;;-0.58;94.26
67109;BME280;54027;50.786;7.058;2023-01-26T06:34:19;101937.09;;;-0.62;93.79
67109;BME280;54027;50.786;7.058;2023-01-26T06:36:45;101948.16;;;-0.62;93.87
67109;BME280;54027;50.786;7.058;2023-01-26T06:39:11;101943.16;;;-0.60;93.73
67109;BME280;54027;50.786;7.058;2023-01-26T06:41:37;101949.09;;;-0.60;93.52
67109;BME280;54027;50.786;7.058;2023-01-26T06:44:03;101950.63;;;-0.63;93.24
67109;BME280;54027;50.786;7.058;2023-01-26T06:46:28;101949.81;;;-0.62;93.85
67109;BME280;54027;50.786;7.058;2023-01-26T06:48:54;101949.72;;;-0.64;93.93
67109;BME280;54027;50.786;7.058;2023-01-26T06:53:52;101949.63;;;-0.65;93.60
67109;BME280;54027;50.786;7.058;2023-01-26T06:56:18;101951.22;;;-0.67;93.31
67109;BME280;54027;50.786;7.058;2023-01-26T06:58:44;101957.06;;;-0.68;93.22
67109;BME280;54027;50.786;7.058;2023-01-26T07:01:13;101956.84;;;-0.73;93.41
67109;BME280;54027;50.786;7.058;2023-01-26T07:03:41;101960.31;;;-0.71;94.06
67109;BME280;54027;50.786;7.058;2023-01-26T07:06:06;101957.00;;;-0.70;93.71
67109;BME280;54027;50.786;7.058;2023-01-26T07:08:35;101960.44;;;-0.69;94.04
67109;BME280;54027;50.786;7.058;2023-01-26T07:11:00;101960.50;;;-0.68;94.05
67109;BME280;54027;50.786;7.058;2023-01-26T07:13:26;101968.22;;;-0.66;94.24
67109;BME280;54027;50.786;7.058;2023-01-26T07:15:51;101964.97;;;-0.64;94.01
67109;BME280;54027;50.786;7.058;2023-01-26T07:18:23;101960.84;;;-0.62;93.98
67109;BME280;54027;50.786;7.058;2023-01-26T07:20:49;101964.25;;;-0.61;94.25
67109;BME280;54027;50.786;7.058;2023-01-26T07:23:14;101967.75;;;-0.59;94.42
67109;BME280;54027;50.786;7.058;2023-01-26T07:25:42;101963.72;;;-0.56;94.39
67109;BME280;54027;50.786;7.058;2023-01-26T07:28:07;101966.53;;;-0.51;93.98
67109;BME280;54027;50.786;7.058;2023-01-26T07:30:35;101970.19;;;-0.46;94.11
67109;BME280;54027;50.786;7.058;2023-01-26T07:33:00;101964.38;;;-0.44;93.72
67109;BME280;54027;50.786;7.058;2023-01-26T07:35:26;101962.91;;;-0.40;93.86
67109;BME280;54027;50.786;7.058;2023-01-26T07:37:53;101959.47;;;-0.41;93.67
67109;BME280;54027;50.786;7.058;2023-01-26T07:40:19;101963.78;;;-0.40;93.38
67109;BME280;54027;50.786;7.058;2023-01-26T07:42:45;101960.44;;;-0.39;93.82
67109;BME280;54027;50.786;7.058;2023-01-26T07:45:10;101964.91;;;-0.34;94.09
67109;BME280;54027;50.786;7.058;2023-01-26T07:47:36;101965.94;;;-0.31;94.09
67109;BME280;54027;50.786;7.058;2023-01-26T07:50:02;101961.81;;;-0.29;93.95
67109;BME280;54027;50.786;7.058;2023-01-26T07:52:27;101957.06;;;-0.23;94.41
67109;BME280;54027;50.786;7.058;2023-01-26T07:54:53;101958.16;;;-0.18;94.03
67109;BME280;54027;50.786;7.058;2023-01-26T07:57:18;101957.72;;;-0.11;94.31
67109;BME280;54027;50.786;7.058;2023-01-26T07:59:43;101953.84;;;-0.04;93.88
67109;BME280;54027;50.786;7.058;2023-01-26T08:02:09;101953.13;;;-0.02;93.75
67109;BME280;54027;50.786;7.058;2023-01-26T08:04:34;101958.19;;;-0.02;93.41
67109;BME280;54027;50.786;7.058;2023-01-26T08:07:00;101961.78;;;0.02;93.25
67109;BME280;54027;50.786;7.058;2023-01-26T08:09:25;101958.53;;;0.04;93.23
67109;BME280;54027;50.786;7.058;2023-01-26T08:11:51;101949.31;;;0.06;93.81
67109;BME280;54027;50.786;7.058;2023-01-26T08:14:16;101949.47;;;0.09;93.24
67109;BME280;54027;50.786;7.058;2023-01-26T08:16:41;101951.22;;;0.10;93.00
67109;BME280;54027;50.786;7.058;2023-01-26T08:19:07;101954.00;;;0.15;92.68
67109;BME280;54027;50.786;7.058;2023-01-26T08:21:32;101951.06;;;0.07;92.61
67109;BME280;54027;50.786;7.058;2023-01-26T08:23:58;101952.56;;;0.04;92.29
67109;BME280;54027;50.786;7.058;2023-01-26T08:26:26;101955.44;;;0.10;93.45
67109;BME280;54027;50.786;7.058;2023-01-26T08:28:51;101956.31;;;0.10;92.82
67109;BME280;54027;50.786;7.058;2023-01-26T08:31:19;101961.06;;;0.04;92.53
67109;BME280;54027;50.786;7.058;2023-01-26T08:33:47;101965.34;;;0.05;92.31
67109;BME280;54027;50.786;7.058;2023-01-26T08:36:14;101966.16;;;0.04;92.58
67109;BME280;54027;50.786;7.058;2023-01-26T08:38:41;101960.19;;;0.04;92.72
67109;BME280;54027;50.786;7.058;2023-01-26T08:41:07;101969.56;;;0.05;92.68
67109;BME280;54027;50.786;7.058;2023-01-26T08:43:34;101963.78;;;0.07;93.12
67109;BME280;54027;50.786;7.058;2023-01-26T08:46:00;101976.72;;;0.12;92.92
67109;BME280;54027;50.786;7.058;2023-01-26T08:48:26;101981.72;;;0.10;92.61
67109;BME280;54027;50.786;7.058;2023-01-26T08:50:57;101975.66;;;0.08;92.06
67109;BME280;54027;50.786;7.058;2023-01-26T08:53:23;101974.72;;;0.06;92.23
67109;BME280;54027;50.786;7.058;2023-01-26T08:55:49;101978.22;;;0.08;92.31
67109;BME280;54027;50.786;7.058;2023-01-26T08:58:14;101976.53;;;0.09;92.51
67109;BME280;54027;50.786;7.058;2023-01-26T09:00:40;101971.47;;;0.09;92.03
67109;BME280;54027;50.786;7.058;2023-01-26T09:03:06;101971.72;;;0.13;92.47
67109;BME280;54027;50.786;7.058;2023-01-26T09:05:34;101976.97;;;0.16;92.65
67109;BME280;54027;50.786;7.058;2023-01-26T09:08:00;101977.91;;;0.18;92.38
67109;BME280;54027;50.786;7.058;2023-01-26T09:10:25;101978.69;;;0.17;91.64
67109;BME280;54027;50.786;7.058;2023-01-26T09:12:51;101976.56;;;0.25;92.22
67109;BME280;54027;50.786;7.058;2023-01-26T09:15:16;101974.34;;;0.31;91.97
67109;BME280;54027;50.786;7.058;2023-01-26T09:17:41;101974.72;;;0.39;92.03
67109;BME280;54027;50.786;7.058;2023-01-26T09:20:08;101983.56;;;0.45;91.41
67109;BME280;54027;50.786;7.058;2023-01-26T09:22:34;101976.09;;;0.48;90.98
67109;BME280;54027;50.786;7.058;2023-01-26T09:25:00;101983.00;;;0.51;90.78
67109;BME280;54027;50.786;7.058;2023-01-26T09:27:26;101979.00;;;0.56;90.74
67109;BME280;54027;50.786;7.058;2023-01-26T09:29:51;101990.38;;;0.62;90.98
67109;BME280;54027;50.786;7.058;2023-01-26T09:32:18;101994.03;;;0.67;90.77
67109;BME280;54027;50.786;7.058;2023-01-26T09:34:44;101991.41;;;0.66;90.37
67109;BME280;54027;50.786;7.058;2023-01-26T09:37:09;101996.66;;;0.69;90.24
67109;BME280;54027;50.786;7.058;2023-01-26T09:39:35;101988.13;;;0.68;89.79
67109;BME280;54027;50.786;7.058;2023-01-26T09:50:23;102005.38;;;0.74;89.77
67109;BME280;54027;50.786;7.058;2023-01-26T09:52:59;101994.50;;;0.77;89.59
67109;BME280;54027;50.786;7.058;2023-01-26T09:55:27;101999.88;;;0.83;89.27
67109;BME280;54027;50.786;7.058;2023-01-26T09:57:59;101993.38;;;0.88;89.02
67109;BME280;54027;50.786;7.058;2023-01-26T10:00:28;101985.06;;;0.92;88.41
67109;BME280;54027;50.786;7.058;2023-01-26T10:08:13;101993.41;;;1.05;88.28
67109;BME280;54027;50.786;7.058;2023-01-26T10:10:45;101990.91;;;1.07;87.82
67109;BME280;54027;50.786;7.058;2023-01-26T10:13:14;101989.41;;;1.10;88.07
67109;BME280;54027;50.786;7.058;2023-01-26T10:15:42;101991.94;;;1.10;88.28
67109;BME280;54027;50.786;7.058;2023-01-26T10:18:27;101986.81;;;1.09;88.29
67109;BME280;54027;50.786;7.058;2023-01-26T10:20:54;101978.34;;;1.10;88.47
67109;BME280;54027;50.786;7.058;2023-01-26T10:23:27;101979.31;;;1.12;88.75
67109;BME280;54027;50.786;7.058;2023-01-26T10:26:01;101969.75;;;1.08;88.85
67109;BME280;54027;50.786;7.058;2023-01-26T10:28:28;101969.91;;;1.11;88.96
67109;BME280;54027;50.786;7.058;2023-01-26T10:30:54;101969.34;;;1.16;89.00
67109;BME280;54027;50.786;7.058;2023-01-26T10:33:30;101976.09;;;1.16;88.56
67109;BME280;54027;50.786;7.058;2023-01-26T10:35:57;101968.09;;;1.08;88.60
67109;BME280;54027;50.786;7.058;2023-01-26T10:40:51;101968.22;;;0.94;88.73
67109;BME280;54027;50.786;7.058;2023-01-26T10:43:17;101964.84;;;0.95;89.43
67109;BME280;54027;50.786;7.058;2023-01-26T10:45:46;101970.19;;;0.99;89.54
67109;BME280;54027;50.786;7.058;2023-01-26T10:48:23;101964.47;;;1.03;89.74
67109;BME280;54027;50.786;7.058;2023-01-26T10:50:51;101962.28;;;1.11;89.95
67109;BME280;54027;50.786;7.058;2023-01-26T10:53:27;101963.47;;;1.17;90.17
67109;BME280;54027;50.786;7.058;2023-01-26T10:56:03;101964.97;;;1.14;90.33
67109;BME280;54027;50.786;7.058;2023-01-26T10:58:44;101951.22;;;1.10;90.67
67109;BME280;54027;50.786;7.058;2023-01-26T11:01:12;101948.47;;;1.06;90.68
67109;BME280;54027;50.786;7.058;2023-01-26T11:03:40;101944.88;;;1.02;90.85
67109;BME280;54027;50.786;7.058;2023-01-26T11:06:14;101944.78;;;1.01;91.37
67109;BME280;54027;50.786;7.058;2023-01-26T11:08:40;101941.47;;;1.02;91.71
67109;BME280;54027;50.786;7.058;2023-01-26T11:11:07;101932.00;;;0.99;91.86
67109;BME280;54027;50.786;7.058;2023-01-26T11:13:46;101933.25;;;1.07;92.54
67109;BME280;54027;50.786;7.058;2023-01-26T11:16:21;101931.88;;;1.14;92.24
67109;BME280;54027;50.786;7.058;2023-01-26T11:19:02;101932.03;;;1.17;92.10
67109;BME280;54027;50.786;7.058;2023-01-26T11:24:07;101921.53;;;1.11;91.85
67109;BME280;54027;50.786;7.058;2023-01-26T11:27:17;101918.41;;;1.16;92.03
67109;BME280;54027;50.786;7.058;2023-01-26T11:32:40;101917.09;;;1.24;91.52
67109;BME280;54027;50.786;7.058;2023-01-26T11:35:12;101914.00;;;1.30;91.46
67109;BME280;54027;50.786;7.058;2023-01-26T11:37:59;101910.75;;;1.34;91.87
67109;BME280;54027;50.786;7.058;2023-01-26T11:56:53;101900.78;;;1.56;91.19
67109;BME280;54027;50.786;7.058;2023-01-26T11:59:34;101902.06;;;1.48;90.95
67109;BME280;54027;50.786;7.058;2023-01-26T12:02:23;101899.19;;;1.41;91.10
67109;BME280;54027;50.786;7.058;2023-01-26T12:04:50;101900.13;;;1.43;91.71
67109;BME280;54027;50.786;7.058;2023-01-26T12:07:29;101883.81;;;1.39;91.38
67109;BME280;54027;50.786;7.058;2023-01-26T12:09:59;101883.97;;;1.42;91.54
67109;BME280;54027;50.786;7.058;2023-01-26T12:12:49;101883.25;;;1.45;91.42
67109;BME280;54027;50.786;7.058;2023-01-26T12:15:24;101883.16;;;1.43;91.42
67109;BME280;54027;50.786;7.058;2023-01-26T12:23:05;101875.75;;;1.48;91.58
67109;BME280;54027;50.786;7.058;2023-01-26T12:33:55;101875.38;;;1.40;91.44
67109;BME280;54027;50.786;7.058;2023-01-26T12:36:39;101865.00;;;1.36;91.97
67109;BME280;54027;50.786;7.058;2023-01-26T12:45:14;101858.81;;;1.30;92.46
67109;BME280;54027;50.786;7.058;2023-01-26T12:47:51;101854.81;;;1.36;92.39
67109;BME280;54027;50.786;7.058;2023-01-26T12:55:55;101851.09;;;1.29;92.45
67109;BME280;54027;50.786;7.058;2023-01-26T12:58:30;101850.19;;;1.27;92.79
67109;BME280;54027;50.786;7.058;2023-01-26T13:01:12;101853.38;;;1.23;92.97
67109;BME280;54027;50.786;7.058;2023-01-26T13:04:01;101844.66;;;1.18;93.00
67109;BME280;54027;50.786;7.058;2023-01-26T13:06:29;101840.22;;;1.14;93.71
67109;BME280;54027;50.786;7.058;2023-01-26T13:14:30;101834.97;;;1.11;94.16
67109;BME280;54027;50.786;7.058;2023-01-26T13:24:48;101845.66;;;1.21;94.50
67109;BME280;54027;50.786;7.058;2023-01-26T13:29:55;101838.28;;;1.27;94.84
67109;BME280;54027;50.786;7.058;2023-01-26T13:34:50;101836.72;;;1.29;94.95
67109;BME280;54027;50.786;7.058;2023-01-26T13:37:33;101840.19;;;1.32;95.06
67109;BME280;54027;50.786;7.058;2023-01-26T13:40:30;101831.81;;;1.34;95.11
67109;BME280;54027;50.786;7.058;2023-01-26T13:45:32;101832.75;;;1.36;94.81
67109;BME280;54027;50.786;7.058;2023-01-26T13:48:01;101830.06;;;1.33;94.56
67109;BME280;54027;50.786;7.058;2023-01-26T13:52:54;101839.25;;;1.29;94.37
67109;BME280;54027;50.786;7.058;2023-01-26T13:55:25;101839.13;;;1.26;94.69
67109;BME280;54027;50.786;7.058;2023-01-26T13:58:14;101836.56;;;1.26;94.53
67109;BME280;54027;50.786;7.058;2023-01-26T14:00:41;101838.28;;;1.27;94.41
67109;BME280;54027;50.786;7.058;2023-01-26T14:03:20;101842.41;;;1.24;94.65
67109;BME280;54027;50.786;7.058;2023-01-26T14:06:17;101854.31;;;1.25;94.73
67109;BME280;54027;50.786;7.058;2023-01-26T14:08:50;101844.84;;;1.22;94.85
67109;BME280;54027;50.786;7.058;2023-01-26T14:11:22;101840.56;;;1.21;94.75
67109;BME280;54027;50.786;7.058;2023-01-26T14:13:53;101843.97;;;1.22;94.93
67109;BME280;54027;50.786;7.058;2023-01-26T14:16:29;101851.69;;;1.23;95.50
67109;BME280;54027;50.786;7.058;2023-01-26T14:19:11;101847.41;;;1.22;95.45
67109;BME280;54027;50.786;7.058;2023-01-26T14:22:10;101842.31;;;1.22;95.38
67109;BME280;54027;50.786;7.058;2023-01-26T14:24:37;101844.84;;;1.22;95.66
67109;BME280;54027;50.786;7.058;2023-01-26T14:27:35;101847.50;;;1.24;95.60
67109;BME280;54027;50.786;7.058;2023-01-26T14:32:46;101849.31;;;1.26;95.96
67109;BME280;54027;50.786;7.058;2023-01-26T14:35:18;101846.81;;;1.28;95.93
67109;BME280;54027;50.786;7.058;2023-01-26T14:37:44;101843.47;;;1.29;95.74
67109;BME280;54027;50.786;7.058;2023-01-26T14:40:29;101850.38;;;1.32;95.98
67109;BME280;54027;50.786;7.058;2023-01-26T14:42:55;101845.34;;;1.33;96.26
67109;BME280;54027;50.786;7.058;2023-01-26T14:45:29;101850.50;;;1.35;96.14